createdAt,value
2023-02-27T00:02:23.138Z,3.70
2023-02-27T00:04:58.111Z,4.15
2023-02-27T00:07:31.481Z,4.10
2023-02-27T00:10:05.279Z,3.72
2023-02-27T00:12:39.212Z,3.87
2023-02-27T00:15:15.599Z,4.45
2023-02-27T00:17:49.404Z,4.12
2023-02-27T00:20:23.405Z,3.42
2023-02-27T00:22:56.962Z,3.22
2023-02-27T00:25:30.604Z,3.72
2023-02-27T00:28:04.448Z,4.50
2023-02-27T00:30:38.008Z,3.62
2023-02-27T00:33:11.586Z,4.12
2023-02-27T00:35:46.405Z,3.87
2023-02-27T00:38:20.290Z,3.90
2023-02-27T00:40:53.951Z,3.58
2023-02-27T00:43:27.496Z,4.10
2023-02-27T00:46:02.182Z,4.33
2023-02-27T00:48:35.457Z,3.05
2023-02-27T00:51:09.334Z,4.75
2023-02-27T00:53:42.509Z,3.80
2023-02-27T00:56:17.559Z,4.17
2023-02-27T00:58:50.795Z,3.80
2023-02-27T01:01:26.127Z,3.87
2023-02-27T01:04:01.280Z,4.15
2023-02-27T01:06:36.980Z,4.40
2023-02-27T01:09:10.192Z,4.35
2023-02-27T01:11:43.749Z,4.53
2023-02-27T01:14:17.348Z,4.28
2023-02-27T01:16:51.585Z,4.70
2023-02-27T01:19:25.531Z,3.40
2023-02-27T01:21:58.927Z,4.45
2023-02-27T01:24:32.658Z,3.87
2023-02-27T01:27:06.706Z,3.90
2023-02-27T01:29:42.286Z,4.53
2023-02-27T01:32:16.318Z,3.87
2023-02-27T01:34:50.001Z,4.62
2023-02-27T01:37:24.480Z,4.80
2023-02-27T01:39:57.991Z,5.50
2023-02-27T01:42:32.686Z,4.22
2023-02-27T01:45:22.528Z,3.50
2023-02-27T01:47:59.578Z,3.75
2023-02-27T01:50:34.971Z,4.33
2023-02-27T01:53:12.678Z,3.63
2023-02-27T01:55:47.475Z,3.85
2023-02-27T01:58:21.052Z,4.05
2023-02-27T02:00:54.906Z,3.92
2023-02-27T02:06:13.833Z,3.65
2023-02-27T02:08:50.097Z,3.20
2023-02-27T02:11:25.860Z,4.03
2023-02-27T02:14:02.799Z,4.03
2023-02-27T02:16:59.644Z,4.90
2023-02-27T02:19:52.279Z,4.30
2023-02-27T02:23:07.557Z,4.65
2023-02-27T02:26:24.938Z,3.90
2023-02-27T02:29:40.435Z,4.92
2023-02-27T02:32:46.871Z,4.85
2023-02-27T02:36:08.547Z,3.83
2023-02-27T02:39:03.580Z,5.08
2023-02-27T02:41:43.600Z,3.65
2023-02-27T02:44:23.301Z,3.92
2023-02-27T02:49:46.172Z,4.60
2023-02-27T02:52:23.046Z,5.72
2023-02-27T02:54:59.630Z,4.63
2023-02-27T02:57:37.494Z,5.15
2023-02-27T03:00:15.441Z,3.45
2023-02-27T03:02:52.004Z,6.55
2023-02-27T03:05:28.550Z,3.98
2023-02-27T03:08:04.696Z,4.37
2023-02-27T03:10:41.435Z,4.85
2023-02-27T03:13:18.509Z,4.35
2023-02-27T03:15:55.855Z,4.97
2023-02-27T03:18:32.056Z,5.30
2023-02-27T03:21:08.606Z,5.22
2023-02-27T03:23:45.076Z,3.72
2023-02-27T03:26:21.859Z,4.90
2023-02-27T03:28:59.162Z,3.98
2023-02-27T03:31:37.612Z,3.98
2023-02-27T03:34:15.990Z,5.12
2023-02-27T03:36:53.259Z,5.30
2023-02-27T03:39:31.202Z,4.00
2023-02-27T03:42:08.663Z,5.05
2023-02-27T03:45:03.070Z,5.15
2023-02-27T03:47:37.705Z,4.63
2023-02-27T03:50:13.076Z,4.78
2023-02-27T03:52:47.780Z,4.85
2023-02-27T03:55:23.301Z,4.83
2023-02-27T03:57:57.151Z,4.92
2023-02-27T04:00:31.105Z,4.75
2023-02-27T04:03:06.435Z,4.05
2023-02-27T04:05:40.204Z,4.85
2023-02-27T04:08:28.000Z,4.30
2023-02-27T04:11:14.616Z,5.08
2023-02-27T04:13:59.759Z,4.60
2023-02-27T04:17:09.366Z,4.75
2023-02-27T04:19:50.276Z,5.35
2023-02-27T04:22:34.038Z,4.75
2023-02-27T04:25:32.913Z,5.03
2023-02-27T04:28:13.280Z,4.87
2023-02-27T04:30:52.207Z,5.83
2023-02-27T04:33:30.944Z,5.47
2023-02-27T04:36:07.170Z,4.28
2023-02-27T04:38:43.610Z,4.85
2023-02-27T04:41:20.318Z,5.35
2023-02-27T04:43:55.348Z,4.57
2023-02-27T04:46:30.699Z,5.35
2023-02-27T04:49:07.059Z,6.62
2023-02-27T04:51:43.282Z,5.15
2023-02-27T04:54:19.506Z,5.03
2023-02-27T04:56:55.889Z,6.17
2023-02-27T04:59:32.445Z,4.08
2023-02-27T05:02:10.606Z,5.22
2023-02-27T05:04:46.459Z,5.10
2023-02-27T05:07:22.680Z,5.83
2023-02-27T05:09:59.589Z,4.85
2023-02-27T05:12:38.293Z,4.87
2023-02-27T05:15:14.859Z,5.40
2023-02-27T05:17:50.636Z,5.72
2023-02-27T05:20:28.968Z,3.35
2023-02-27T05:23:04.965Z,4.20
2023-02-27T05:25:41.344Z,6.33
2023-02-27T05:28:17.505Z,5.33
2023-02-27T05:30:54.239Z,5.35
2023-02-27T05:33:31.411Z,6.20
2023-02-27T05:36:07.909Z,4.62
2023-02-27T05:38:44.465Z,6.33
2023-02-27T05:41:21.125Z,5.15
2023-02-27T05:43:57.611Z,4.62
2023-02-27T05:46:33.833Z,4.37
2023-02-27T05:49:10.044Z,4.42
2023-02-27T05:51:46.425Z,6.10
2023-02-27T05:54:25.102Z,4.67
2023-02-27T05:57:01.255Z,4.80
2023-02-27T05:59:39.188Z,5.80
2023-02-27T06:02:13.825Z,6.17
2023-02-27T06:04:47.332Z,4.00
2023-02-27T06:07:21.203Z,4.65
2023-02-27T06:09:54.618Z,5.40
2023-02-27T06:12:27.655Z,4.40
2023-02-27T06:15:00.747Z,3.70
2023-02-27T06:17:35.192Z,4.80
2023-02-27T06:20:11.623Z,4.72
2023-02-27T06:22:45.418Z,4.20
2023-02-27T06:25:19.389Z,4.53
2023-02-27T06:27:52.964Z,4.92
2023-02-27T06:30:26.986Z,4.75
2023-02-27T06:33:01.182Z,5.47
2023-02-27T06:35:35.335Z,5.17
2023-02-27T06:38:08.907Z,4.62
2023-02-27T06:40:42.744Z,4.42
2023-02-27T06:43:17.745Z,4.83
2023-02-27T06:45:51.222Z,5.15
2023-02-27T06:48:24.803Z,5.53
2023-02-27T06:50:58.897Z,5.00
2023-02-27T06:53:32.574Z,5.47
2023-02-27T06:56:06.881Z,4.42
2023-02-27T06:58:40.603Z,4.08
2023-02-27T07:01:14.780Z,4.60
2023-02-27T07:03:48.076Z,5.22
2023-02-27T07:06:21.774Z,4.67
2023-02-27T07:09:06.350Z,5.05
2023-02-27T07:11:32.117Z,4.67
2023-02-27T07:14:05.804Z,3.98
2023-02-27T07:16:39.402Z,3.58
2023-02-27T07:19:13.291Z,3.92
2023-02-27T07:21:46.633Z,4.33
2023-02-27T07:24:20.452Z,3.67
2023-02-27T07:26:54.278Z,3.27
2023-02-27T07:29:27.677Z,4.17
2023-02-27T07:32:01.776Z,3.55
2023-02-27T07:34:35.143Z,3.62
2023-02-27T07:37:09.152Z,5.55
2023-02-27T07:39:42.876Z,4.05
2023-02-27T07:42:18.114Z,3.80
2023-02-27T07:44:51.647Z,4.33
2023-02-27T07:47:25.018Z,3.67
2023-02-27T07:49:59.193Z,3.55
2023-02-27T07:52:34.556Z,4.50
2023-02-27T07:55:09.486Z,3.22
2023-02-27T07:57:45.838Z,4.67
2023-02-27T08:00:22.288Z,4.12
2023-02-27T08:05:37.954Z,3.80
2023-02-27T08:08:11.764Z,3.90
2023-02-27T08:10:45.354Z,3.98
2023-02-27T08:13:30.086Z,2.87
2023-02-27T08:15:55.180Z,3.72
2023-02-27T08:18:28.544Z,3.50
2023-02-27T08:21:03.748Z,4.53
2023-02-27T08:23:37.871Z,3.45
2023-02-27T08:26:11.307Z,3.55
2023-02-27T08:28:45.000Z,3.30
2023-02-27T08:31:18.728Z,3.58
2023-02-27T08:34:01.110Z,3.00
2023-02-27T08:36:28.026Z,4.20
2023-02-27T08:39:01.773Z,3.67
2023-02-27T08:41:37.246Z,2.58
2023-02-27T08:44:12.059Z,4.25
2023-02-27T08:46:45.588Z,2.75
2023-02-27T08:49:21.563Z,3.20
2023-02-27T08:51:55.171Z,3.58
2023-02-27T08:54:28.964Z,2.87
2023-02-27T08:57:02.057Z,3.85
2023-02-27T08:59:35.816Z,3.33
2023-02-27T09:02:09.278Z,3.52
2023-02-27T09:04:42.619Z,3.40
2023-02-27T09:07:16.081Z,3.77
2023-02-27T09:09:50.137Z,4.00
2023-02-27T09:12:23.617Z,4.25
2023-02-27T09:14:57.005Z,3.25
2023-02-27T09:17:30.506Z,2.42
2023-02-27T09:20:05.072Z,2.60
2023-02-27T09:22:38.876Z,3.83
2023-02-27T09:25:12.853Z,3.58
2023-02-27T09:27:46.383Z,3.20
2023-02-27T09:35:40.304Z,2.33
2023-02-27T09:38:14.050Z,3.05
2023-02-27T09:40:49.172Z,2.92
2023-02-27T09:43:25.496Z,2.65
2023-02-27T09:46:00.315Z,3.10
2023-02-27T09:48:36.632Z,3.25
2023-02-27T09:51:10.562Z,2.22
2023-02-27T09:53:46.882Z,2.37
2023-02-27T09:56:24.014Z,2.72
2023-02-27T09:59:01.771Z,3.22
2023-02-27T10:01:37.535Z,3.50
2023-02-27T10:04:43.682Z,2.77
2023-02-27T10:07:20.736Z,3.40
2023-02-27T10:10:00.781Z,3.17
2023-02-27T10:12:49.828Z,2.70
2023-02-27T10:15:28.106Z,3.00
2023-02-27T10:18:23.598Z,4.12
2023-02-27T10:20:43.103Z,3.85
2023-02-27T10:23:19.458Z,2.33
2023-02-27T10:25:54.037Z,2.98
2023-02-27T10:28:30.610Z,2.42
2023-02-27T10:31:06.156Z,2.92
2023-02-27T10:33:41.188Z,2.65
2023-02-27T10:36:30.637Z,2.25
2023-02-27T10:38:53.224Z,3.40
2023-02-27T10:41:29.006Z,3.00
2023-02-27T10:44:03.412Z,3.25
2023-02-27T10:46:39.171Z,3.12
2023-02-27T10:49:19.236Z,2.55
2023-02-27T10:52:14.205Z,3.72
2023-02-27T10:54:48.866Z,3.52
2023-02-27T10:57:33.661Z,3.20
2023-02-27T11:00:11.329Z,3.15
2023-02-27T11:05:24.493Z,2.75
2023-02-27T11:08:00.188Z,3.47
2023-02-27T11:10:33.871Z,3.75
2023-02-27T11:13:09.976Z,3.70
2023-02-27T11:15:43.881Z,4.15
2023-02-27T11:18:29.308Z,3.00
2023-02-27T11:21:24.457Z,3.27
2023-02-27T11:24:01.087Z,3.92
2023-02-27T11:26:36.621Z,2.77
2023-02-27T11:29:19.165Z,3.75
2023-02-27T11:31:55.324Z,4.03
2023-02-27T11:34:32.101Z,3.55
2023-02-27T11:37:07.765Z,4.10
2023-02-27T11:39:43.873Z,2.50
2023-02-27T11:42:21.728Z,3.33
2023-02-27T11:44:59.851Z,3.30
2023-02-27T11:47:37.896Z,2.70
2023-02-27T11:50:48.836Z,3.45
2023-02-27T11:54:04.935Z,3.37
2023-02-27T11:56:41.400Z,2.00
2023-02-27T11:59:42.675Z,2.80
2023-02-27T12:02:21.843Z,3.52
2023-02-27T12:04:58.969Z,3.90
2023-02-27T12:07:35.618Z,4.65
2023-02-27T12:10:14.344Z,3.85
2023-02-27T12:12:50.980Z,3.92
2023-02-27T12:15:31.561Z,4.47
2023-02-27T12:18:12.451Z,2.90
2023-02-27T12:20:51.412Z,4.10
2023-02-27T12:23:29.648Z,3.42
2023-02-27T12:26:06.447Z,3.47
2023-02-27T12:28:46.199Z,2.75
2023-02-27T12:31:46.525Z,3.22
2023-02-27T12:34:27.285Z,3.42
2023-02-27T12:37:05.017Z,3.83
2023-02-27T12:42:40.188Z,3.80
2023-02-27T12:49:00.439Z,2.67
2023-02-27T12:51:40.752Z,2.95
2023-02-27T12:54:39.688Z,3.90
2023-02-27T12:57:30.034Z,3.27
2023-02-27T13:00:15.082Z,3.00
2023-02-27T13:02:58.727Z,3.70
2023-02-27T13:05:45.809Z,2.87
2023-02-27T13:08:43.466Z,3.55
2023-02-27T13:11:23.972Z,4.20
2023-02-27T13:14:01.986Z,3.00
2023-02-27T13:16:38.127Z,3.70
2023-02-27T13:19:16.324Z,3.92
2023-02-27T13:21:52.695Z,4.22
2023-02-27T13:24:28.317Z,3.98
2023-02-27T13:27:05.430Z,4.62
2023-02-27T13:29:41.726Z,5.17
2023-02-27T13:32:41.248Z,3.72
2023-02-27T13:35:03.629Z,4.35
2023-02-27T13:37:58.126Z,4.10
2023-02-27T13:40:34.415Z,3.72
2023-02-27T13:43:27.050Z,5.25
2023-02-27T13:46:02.443Z,3.98
2023-02-27T13:48:47.448Z,4.53
2023-02-27T13:51:56.803Z,3.92
2023-02-27T13:54:36.926Z,5.00
2023-02-27T13:57:24.383Z,3.70
2023-02-27T14:00:00.957Z,4.60
2023-02-27T14:02:58.399Z,4.15
2023-02-27T14:05:28.749Z,4.42
2023-02-27T14:08:10.538Z,4.58
2023-02-27T14:10:54.106Z,5.10
2023-02-27T14:14:02.299Z,6.25
2023-02-27T14:16:53.502Z,3.95
2023-02-27T14:19:59.697Z,4.35
2023-02-27T14:22:44.983Z,3.52
2023-02-27T14:25:24.768Z,4.33
2023-02-27T14:28:00.530Z,3.92
2023-02-27T14:30:41.680Z,4.47
2023-02-27T14:33:39.182Z,3.75
2023-02-27T14:36:02.881Z,5.65
2023-02-27T14:38:38.458Z,5.92
2023-02-27T14:41:19.689Z,4.78
2023-02-27T14:43:57.652Z,5.40
2023-02-27T14:46:34.211Z,4.75
2023-02-27T14:49:10.091Z,5.75
2023-02-27T14:51:43.510Z,4.72
2023-02-27T14:54:18.499Z,4.45
2023-02-27T14:57:00.809Z,5.35
2023-02-27T14:59:36.980Z,4.00
2023-02-27T15:02:19.488Z,4.03
2023-02-27T15:04:57.169Z,4.80
2023-02-27T15:07:33.710Z,4.62
2023-02-27T15:10:10.520Z,4.17
2023-02-27T15:12:44.520Z,4.70
2023-02-27T15:15:21.860Z,3.60
2023-02-27T15:17:56.725Z,4.33
2023-02-27T15:20:32.174Z,4.62
2023-02-27T15:23:23.334Z,4.92
2023-02-27T15:25:59.301Z,4.12
2023-02-27T15:28:35.856Z,4.45
2023-02-27T15:31:12.244Z,4.60
2023-02-27T15:33:45.741Z,5.33
2023-02-27T15:36:25.390Z,5.17
2023-02-27T15:39:21.504Z,5.47
2023-02-27T15:41:56.695Z,4.77
2023-02-27T15:44:32.774Z,5.70
2023-02-27T15:47:06.949Z,5.37
2023-02-27T15:49:40.494Z,5.97
2023-02-27T15:52:20.046Z,6.42
2023-02-27T15:54:56.042Z,4.78
2023-02-27T15:57:30.773Z,4.50
2023-02-27T16:00:06.337Z,4.80
2023-02-27T16:02:44.327Z,4.60
2023-02-27T16:05:21.264Z,4.05
2023-02-27T16:07:55.807Z,5.30
2023-02-27T16:10:32.142Z,4.58
2023-02-27T16:13:33.620Z,5.50
2023-02-27T16:16:09.974Z,4.05
2023-02-27T16:18:50.036Z,5.12
2023-02-27T16:21:25.319Z,4.78
2023-02-27T16:24:18.484Z,4.37
2023-02-27T16:26:58.071Z,5.35
2023-02-27T16:29:35.519Z,4.50
2023-02-27T16:32:11.818Z,5.80
2023-02-27T16:34:46.914Z,6.75
2023-02-27T16:37:24.238Z,5.97
2023-02-27T16:39:57.598Z,5.45
2023-02-27T16:42:31.459Z,2.95
2023-02-27T16:45:05.370Z,4.62
2023-02-27T16:47:40.439Z,5.78
2023-02-27T16:50:17.412Z,5.17
2023-02-27T16:52:51.099Z,4.90
2023-02-27T16:55:25.240Z,3.80
2023-02-27T16:57:58.898Z,3.92
2023-02-27T17:00:34.243Z,3.60
2023-02-27T17:03:07.970Z,3.85
2023-02-27T17:05:41.898Z,4.20
2023-02-27T17:08:19.654Z,4.60
2023-02-27T17:10:53.998Z,3.83
2023-02-27T17:13:28.373Z,4.97
2023-02-27T17:16:01.905Z,4.20
2023-02-27T17:18:35.906Z,3.22
2023-02-27T17:21:10.768Z,5.03
2023-02-27T17:23:44.649Z,4.28
2023-02-27T17:26:18.431Z,5.28
2023-02-27T17:28:51.994Z,5.72
2023-02-27T17:31:25.947Z,4.53
2023-02-27T17:33:59.600Z,3.15
2023-02-27T17:36:32.991Z,4.42
2023-02-27T17:39:07.413Z,3.90
2023-02-27T17:41:42.040Z,3.62
2023-02-27T17:44:15.737Z,3.87
2023-02-27T17:46:49.336Z,3.58
2023-02-27T17:49:22.649Z,5.10
2023-02-27T17:51:58.018Z,3.77
2023-02-27T17:54:31.380Z,3.60
2023-02-27T17:57:06.890Z,4.42
2023-02-27T17:59:41.301Z,4.35
2023-02-27T18:02:15.440Z,5.58
2023-02-27T18:04:49.206Z,5.17
2023-02-27T18:07:22.711Z,4.08
2023-02-27T18:09:56.269Z,5.30
2023-02-27T18:12:29.787Z,3.58
2023-02-27T18:15:03.411Z,3.55
2023-02-27T18:17:36.784Z,2.55
2023-02-27T18:20:13.749Z,4.40
2023-02-27T18:22:46.993Z,2.87
2023-02-27T18:25:20.434Z,3.62
2023-02-27T18:27:55.371Z,4.30
2023-02-27T18:30:30.783Z,3.95
2023-02-27T18:33:03.784Z,3.65
2023-02-27T18:35:36.938Z,4.20
2023-02-27T18:38:10.503Z,3.90
2023-02-27T18:40:44.057Z,4.62
2023-02-27T18:43:17.340Z,3.85
2023-02-27T18:45:51.016Z,2.75
2023-02-27T18:48:24.540Z,3.58
2023-02-27T18:51:05.005Z,4.17
2023-02-27T18:53:38.838Z,5.15
2023-02-27T18:56:14.245Z,4.65
2023-02-27T18:58:48.056Z,4.28
2023-02-27T19:01:23.932Z,4.37
2023-02-27T19:04:00.677Z,3.50
2023-02-27T19:06:35.233Z,4.00
2023-02-27T19:09:09.963Z,4.40
2023-02-27T19:11:44.278Z,3.95
2023-02-27T19:14:18.068Z,4.75
2023-02-27T19:16:51.428Z,3.83
2023-02-27T19:19:26.683Z,5.00
2023-02-27T19:22:02.921Z,6.85
2023-02-27T19:24:36.443Z,4.75
2023-02-27T19:27:10.455Z,5.00
2023-02-27T19:29:43.925Z,5.85
2023-02-27T19:32:17.404Z,5.03
2023-02-27T19:34:50.709Z,4.78
2023-02-27T19:37:24.134Z,4.58
2023-02-27T19:39:58.433Z,5.25
2023-02-27T19:42:32.033Z,5.40
2023-02-27T19:45:05.821Z,4.12
2023-02-27T19:47:39.707Z,5.97
2023-02-27T19:50:15.068Z,4.50
2023-02-27T19:52:48.336Z,6.17
2023-02-27T19:55:21.957Z,6.05
2023-02-27T19:57:55.525Z,4.72
2023-02-27T20:00:29.578Z,5.37
2023-02-27T20:03:06.228Z,5.08
2023-02-27T20:05:41.469Z,5.53
2023-02-27T20:08:18.206Z,4.78
2023-02-27T20:10:58.416Z,4.87
2023-02-27T20:13:32.682Z,5.50
2023-02-27T20:16:08.995Z,5.87
2023-02-27T20:18:45.758Z,5.00
2023-02-27T20:21:21.305Z,4.37
2023-02-27T20:23:55.619Z,5.10
2023-02-27T20:26:31.619Z,4.22
2023-02-27T20:29:08.408Z,4.95
2023-02-27T20:31:43.796Z,4.90
2023-02-27T20:34:22.140Z,5.55
2023-02-27T20:36:56.620Z,6.72
2023-02-27T20:39:32.962Z,4.97
2023-02-27T20:42:08.654Z,4.22
2023-02-27T20:44:42.462Z,3.42
2023-02-27T20:47:15.926Z,3.40
2023-02-27T20:49:49.733Z,4.62
2023-02-27T20:52:25.136Z,5.25
2023-02-27T20:54:58.391Z,5.45
2023-02-27T20:57:32.776Z,4.95
2023-02-27T21:00:11.147Z,5.12
2023-02-27T21:02:45.488Z,5.30
2023-02-27T21:05:18.782Z,4.30
2023-02-27T21:07:52.220Z,4.17
2023-02-27T21:10:25.828Z,5.25
2023-02-27T21:12:59.399Z,4.25
2023-02-27T21:15:34.248Z,5.83
2023-02-27T21:18:09.218Z,4.30
2023-02-27T21:20:43.868Z,3.70
2023-02-27T21:23:17.391Z,5.45
2023-02-27T21:25:53.506Z,5.12
2023-02-27T21:28:27.260Z,5.87
2023-02-27T21:31:02.171Z,5.55
2023-02-27T21:33:35.785Z,4.75
2023-02-27T21:36:11.720Z,7.20
2023-02-27T21:38:46.110Z,6.03
2023-02-27T21:41:19.679Z,6.45
2023-02-27T21:43:53.080Z,5.62
2023-02-27T21:46:26.930Z,4.92
2023-02-27T21:49:02.756Z,4.95
2023-02-27T21:51:40.941Z,6.25
2023-02-27T21:54:14.127Z,5.15
2023-02-27T21:56:49.597Z,5.65
2023-02-27T21:59:23.290Z,5.40
2023-02-27T22:01:57.221Z,4.95
2023-02-27T22:04:30.746Z,5.75
2023-02-27T22:07:11.135Z,5.75
2023-02-27T22:09:43.878Z,5.05
2023-02-27T22:12:17.988Z,4.67
2023-02-27T22:14:51.503Z,5.65
2023-02-27T22:17:24.946Z,4.95
2023-02-27T22:19:58.478Z,5.83
2023-02-27T22:22:32.232Z,5.10
2023-02-27T22:25:06.009Z,6.42
2023-02-27T22:27:39.554Z,5.90
2023-02-27T22:30:17.675Z,5.78
2023-02-27T22:32:50.930Z,4.55
2023-02-27T22:35:25.086Z,5.35
2023-02-27T22:37:58.892Z,6.15
2023-02-27T22:40:33.956Z,6.37
2023-02-27T22:43:07.319Z,5.17
2023-02-27T22:45:42.190Z,5.70
2023-02-27T22:48:15.843Z,6.40
2023-02-27T22:50:50.660Z,5.80
2023-02-27T22:53:23.992Z,7.15
2023-02-27T22:55:58.551Z,6.00
2023-02-27T22:58:34.015Z,5.72
2023-02-27T23:01:12.793Z,6.12
2023-02-27T23:03:48.121Z,5.28
2023-02-27T23:06:23.012Z,4.92
2023-02-27T23:08:56.459Z,5.95
2023-02-27T23:11:30.365Z,5.62
2023-02-27T23:14:03.888Z,6.83
2023-02-27T23:16:37.900Z,4.53
2023-02-27T23:19:11.808Z,6.55
2023-02-27T23:21:45.426Z,5.80
2023-02-27T23:24:20.487Z,6.67
2023-02-27T23:26:54.886Z,5.40
2023-02-27T23:29:28.314Z,6.67
2023-02-27T23:32:02.035Z,5.80
2023-02-27T23:34:49.057Z,6.90
2023-02-27T23:37:10.783Z,7.08
2023-02-27T23:39:44.326Z,6.28
2023-02-27T23:42:17.767Z,6.62
2023-02-27T23:45:08.758Z,6.80
2023-02-27T23:47:45.313Z,7.03
2023-02-27T23:50:20.024Z,5.03
2023-02-27T23:52:55.456Z,5.83
2023-02-27T23:55:31.404Z,6.28
2023-02-27T23:58:07.357Z,6.70
